<?xml version="1.0" encoding="UTF-8" standalone="no" ?>
<gpx xmlns="http://www.topografix.com/GPX/1/1" xmlns:xsi="http://www.w3.org/2001/XMLSchema-instance" xsi:schemaLocation="http://www.topografix.com/GPX/1/1 http://www.topografix.com/GPX/1/1/gpx.xsd" version="1.1" creator="VisuGPX - https://www.visugpx.com">
  <metadata>
    <name>Néoules Barre de Cuers</name>
    <desc><![CDATA[Rando facile sans difficulté.]]></desc>
  </metadata>
  <trk>
    <name><![CDATA[Néoules Barre de Cuers_1]]></name>
    <trkseg>
      <trkpt lat="43.30772" lon="6.01408">
        <ele>334.2</ele>
        <time>2015-01-07T08:06:13Z</time>
      </trkpt>
      <trkpt lat="43.30771" lon="6.01409">
        <ele>334</ele>
        <time>2015-01-07T08:06:14Z</time>
      </trkpt>
      <trkpt lat="43.30741" lon="6.01429">
        <ele>330.3</ele>
        <time>2015-01-07T08:06:48Z</time>
      </trkpt>
      <trkpt lat="43.30725" lon="6.0144">
        <ele>332.2</ele>
        <time>2015-01-07T08:07:02Z</time>
      </trkpt>
      <trkpt lat="43.3071" lon="6.01451">
        <ele>330.2</ele>
        <time>2015-01-07T08:07:17Z</time>
      </trkpt>
      <trkpt lat="43.30709" lon="6.01451">
        <ele>330</ele>
        <time>2015-01-07T08:07:18Z</time>
      </trkpt>
      <trkpt lat="43.30677" lon="6.01468">
        <ele>331.6</ele>
        <time>2015-01-07T08:07:47Z</time>
      </trkpt>
      <trkpt lat="43.30661" lon="6.01477">
        <ele>334.6</ele>
        <time>2015-01-07T08:08:00Z</time>
      </trkpt>
      <trkpt lat="43.30645" lon="6.01487">
        <ele>334.6</ele>
        <time>2015-01-07T08:08:14Z</time>
      </trkpt>
      <trkpt lat="43.30631" lon="6.015">
        <ele>334.2</ele>
        <time>2015-01-07T08:08:28Z</time>
      </trkpt>
      <trkpt lat="43.30629" lon="6.015">
        <ele>334.2</ele>
        <time>2015-01-07T08:08:29Z</time>
      </trkpt>
      <trkpt lat="43.30601" lon="6.01516">
        <ele>342.7</ele>
        <time>2015-01-07T08:08:50Z</time>
      </trkpt>
      <trkpt lat="43.30583" lon="6.01522">
        <ele>343.3</ele>
        <time>2015-01-07T08:09:06Z</time>
      </trkpt>
      <trkpt lat="43.30567" lon="6.01528">
        <ele>344.7</ele>
        <time>2015-01-07T08:09:18Z</time>
      </trkpt>
      <trkpt lat="43.3055" lon="6.01536">
        <ele>346.3</ele>
        <time>2015-01-07T08:09:32Z</time>
      </trkpt>
      <trkpt lat="43.3055" lon="6.01537">
        <ele>346.6</ele>
        <time>2015-01-07T08:09:33Z</time>
      </trkpt>
      <trkpt lat="43.30527" lon="6.01572">
        <ele>344</ele>
        <time>2015-01-07T08:10:05Z</time>
      </trkpt>
      <trkpt lat="43.30516" lon="6.0159">
        <ele>348</ele>
        <time>2015-01-07T08:10:19Z</time>
      </trkpt>
      <trkpt lat="43.30503" lon="6.01605">
        <ele>350.6</ele>
        <time>2015-01-07T08:10:34Z</time>
      </trkpt>
      <trkpt lat="43.30502" lon="6.01606">
        <ele>350.5</ele>
        <time>2015-01-07T08:10:35Z</time>
      </trkpt>
      <trkpt lat="43.30479" lon="6.0164">
        <ele>353.2</ele>
        <time>2015-01-07T08:11:10Z</time>
      </trkpt>
      <trkpt lat="43.30469" lon="6.01659">
        <ele>353.2</ele>
        <time>2015-01-07T08:11:27Z</time>
      </trkpt>
      <trkpt lat="43.30457" lon="6.01677">
        <ele>355</ele>
        <time>2015-01-07T08:11:42Z</time>
      </trkpt>
      <trkpt lat="43.30456" lon="6.01677">
        <ele>354.8</ele>
        <time>2015-01-07T08:11:43Z</time>
      </trkpt>
      <trkpt lat="43.30433" lon="6.01709">
        <ele>356.2</ele>
        <time>2015-01-07T08:12:19Z</time>
      </trkpt>
      <trkpt lat="43.30419" lon="6.01724">
        <ele>364.1</ele>
        <time>2015-01-07T08:12:37Z</time>
      </trkpt>
      <trkpt lat="43.30408" lon="6.01743">
        <ele>369.5</ele>
        <time>2015-01-07T08:13:01Z</time>
      </trkpt>
      <trkpt lat="43.30407" lon="6.01743">
        <ele>370</ele>
        <time>2015-01-07T08:13:02Z</time>
      </trkpt>
      <trkpt lat="43.30391" lon="6.01785">
        <ele>371.8</ele>
        <time>2015-01-07T08:13:56Z</time>
      </trkpt>
      <trkpt lat="43.30379" lon="6.01803">
        <ele>370.7</ele>
        <time>2015-01-07T08:14:25Z</time>
      </trkpt>
      <trkpt lat="43.30379" lon="6.01804">
        <ele>370.7</ele>
        <time>2015-01-07T08:14:26Z</time>
      </trkpt>
      <trkpt lat="43.30361" lon="6.01845">
        <ele>378</ele>
        <time>2015-01-07T08:15:12Z</time>
      </trkpt>
      <trkpt lat="43.3035" lon="6.01863">
        <ele>378.6</ele>
        <time>2015-01-07T08:15:37Z</time>
      </trkpt>
      <trkpt lat="43.3035" lon="6.01864">
        <ele>379.8</ele>
        <time>2015-01-07T08:15:38Z</time>
      </trkpt>
      <trkpt lat="43.3032" lon="6.0189">
        <ele>385.3</ele>
        <time>2015-01-07T08:16:44Z</time>
      </trkpt>
      <trkpt lat="43.3032" lon="6.0189">
        <ele>385.3</ele>
        <time>2015-01-07T08:16:45Z</time>
      </trkpt>
      <trkpt lat="43.30303" lon="6.01896">
        <ele>396.6</ele>
        <time>2015-01-07T08:17:48Z</time>
      </trkpt>
      <trkpt lat="43.30285" lon="6.01902">
        <ele>392.1</ele>
        <time>2015-01-07T08:19:01Z</time>
      </trkpt>
      <trkpt lat="43.3025" lon="6.01909">
        <ele>397.5</ele>
        <time>2015-01-07T08:19:58Z</time>
      </trkpt>
      <trkpt lat="43.30234" lon="6.01898">
        <ele>402.1</ele>
        <time>2015-01-07T08:20:23Z</time>
      </trkpt>
      <trkpt lat="43.30234" lon="6.01899">
        <ele>402.2</ele>
        <time>2015-01-07T08:20:24Z</time>
      </trkpt>
      <trkpt lat="43.30228" lon="6.01945">
        <ele>407.2</ele>
        <time>2015-01-07T08:21:10Z</time>
      </trkpt>
      <trkpt lat="43.30216" lon="6.01963">
        <ele>408.2</ele>
        <time>2015-01-07T08:21:28Z</time>
      </trkpt>
      <trkpt lat="43.30216" lon="6.01964">
        <ele>408.3</ele>
        <time>2015-01-07T08:21:29Z</time>
      </trkpt>
      <trkpt lat="43.30196" lon="6.02001">
        <ele>411.7</ele>
        <time>2015-01-07T08:22:00Z</time>
      </trkpt>
      <trkpt lat="43.30193" lon="6.02024">
        <ele>414.2</ele>
        <time>2015-01-07T08:22:17Z</time>
      </trkpt>
      <trkpt lat="43.30192" lon="6.02048">
        <ele>416.7</ele>
        <time>2015-01-07T08:22:34Z</time>
      </trkpt>
      <trkpt lat="43.30192" lon="6.02049">
        <ele>416.7</ele>
        <time>2015-01-07T08:22:35Z</time>
      </trkpt>
      <trkpt lat="43.30186" lon="6.02095">
        <ele>417.7</ele>
        <time>2015-01-07T08:23:07Z</time>
      </trkpt>
      <trkpt lat="43.3018" lon="6.02118">
        <ele>420.6</ele>
        <time>2015-01-07T08:23:23Z</time>
      </trkpt>
      <trkpt lat="43.30169" lon="6.02137">
        <ele>422.8</ele>
        <time>2015-01-07T08:23:40Z</time>
      </trkpt>
      <trkpt lat="43.30169" lon="6.02138">
        <ele>422.8</ele>
        <time>2015-01-07T08:23:41Z</time>
      </trkpt>
      <trkpt lat="43.30145" lon="6.02171">
        <ele>426</ele>
        <time>2015-01-07T08:24:30Z</time>
      </trkpt>
      <trkpt lat="43.30134" lon="6.0219">
        <ele>428.7</ele>
        <time>2015-01-07T08:24:47Z</time>
      </trkpt>
      <trkpt lat="43.30133" lon="6.02191">
        <ele>429</ele>
        <time>2015-01-07T08:24:48Z</time>
      </trkpt>
      <trkpt lat="43.30112" lon="6.02227">
        <ele>430.6</ele>
        <time>2015-01-07T08:25:24Z</time>
      </trkpt>
      <trkpt lat="43.301" lon="6.02246">
        <ele>431.7</ele>
        <time>2015-01-07T08:25:40Z</time>
      </trkpt>
      <trkpt lat="43.30089" lon="6.02265">
        <ele>433.7</ele>
        <time>2015-01-07T08:25:55Z</time>
      </trkpt>
      <trkpt lat="43.30088" lon="6.02267">
        <ele>433.8</ele>
        <time>2015-01-07T08:25:56Z</time>
      </trkpt>
      <trkpt lat="43.30089" lon="6.02308">
        <ele>439.6</ele>
        <time>2015-01-07T08:26:28Z</time>
      </trkpt>
      <trkpt lat="43.30106" lon="6.02316">
        <ele>441.2</ele>
        <time>2015-01-07T08:26:46Z</time>
      </trkpt>
      <trkpt lat="43.30098" lon="6.02338">
        <ele>440.5</ele>
        <time>2015-01-07T08:27:09Z</time>
      </trkpt>
      <trkpt lat="43.30097" lon="6.02339">
        <ele>440.3</ele>
        <time>2015-01-07T08:27:10Z</time>
      </trkpt>
      <trkpt lat="43.30067" lon="6.02357">
        <ele>441.7</ele>
        <time>2015-01-07T08:27:41Z</time>
      </trkpt>
      <trkpt lat="43.3005" lon="6.02366">
        <ele>444</ele>
        <time>2015-01-07T08:27:58Z</time>
      </trkpt>
      <trkpt lat="43.30034" lon="6.02376">
        <ele>446.3</ele>
        <time>2015-01-07T08:28:15Z</time>
      </trkpt>
      <trkpt lat="43.30033" lon="6.02377">
        <ele>446.5</ele>
        <time>2015-01-07T08:28:16Z</time>
      </trkpt>
      <trkpt lat="43.30002" lon="6.02392">
        <ele>449.8</ele>
        <time>2015-01-07T08:28:47Z</time>
      </trkpt>
      <trkpt lat="43.29985" lon="6.02396">
        <ele>451.2</ele>
        <time>2015-01-07T08:29:03Z</time>
      </trkpt>
      <trkpt lat="43.29969" lon="6.02403">
        <ele>451.3</ele>
        <time>2015-01-07T08:29:20Z</time>
      </trkpt>
      <trkpt lat="43.29968" lon="6.02403">
        <ele>451.7</ele>
        <time>2015-01-07T08:29:21Z</time>
      </trkpt>
      <trkpt lat="43.29945" lon="6.02436">
        <ele>453.2</ele>
        <time>2015-01-07T08:29:53Z</time>
      </trkpt>
      <trkpt lat="43.29936" lon="6.02457">
        <ele>454.2</ele>
        <time>2015-01-07T08:30:12Z</time>
      </trkpt>
      <trkpt lat="43.29925" lon="6.02477">
        <ele>456.1</ele>
        <time>2015-01-07T08:31:29Z</time>
      </trkpt>
      <trkpt lat="43.29925" lon="6.02477">
        <ele>456.1</ele>
        <time>2015-01-07T08:31:30Z</time>
      </trkpt>
      <trkpt lat="43.29912" lon="6.02494">
        <ele>459.2</ele>
        <time>2015-01-07T08:37:19Z</time>
      </trkpt>
      <trkpt lat="43.29882" lon="6.02517">
        <ele>459.8</ele>
        <time>2015-01-07T08:37:53Z</time>
      </trkpt>
      <trkpt lat="43.29865" lon="6.02522">
        <ele>459.7</ele>
        <time>2015-01-07T08:38:09Z</time>
      </trkpt>
      <trkpt lat="43.29847" lon="6.02524">
        <ele>460.3</ele>
        <time>2015-01-07T08:38:26Z</time>
      </trkpt>
      <trkpt lat="43.29846" lon="6.02524">
        <ele>460.3</ele>
        <time>2015-01-07T08:38:27Z</time>
      </trkpt>
      <trkpt lat="43.29813" lon="6.02524">
        <ele>458.1</ele>
        <time>2015-01-07T08:38:59Z</time>
      </trkpt>
      <trkpt lat="43.29796" lon="6.02523">
        <ele>457.1</ele>
        <time>2015-01-07T08:39:14Z</time>
      </trkpt>
      <trkpt lat="43.29778" lon="6.02522">
        <ele>460.6</ele>
        <time>2015-01-07T08:39:28Z</time>
      </trkpt>
      <trkpt lat="43.29777" lon="6.02522">
        <ele>461.3</ele>
        <time>2015-01-07T08:39:29Z</time>
      </trkpt>
      <trkpt lat="43.29744" lon="6.02517">
        <ele>464.6</ele>
        <time>2015-01-07T08:39:57Z</time>
      </trkpt>
      <trkpt lat="43.29728" lon="6.02507">
        <ele>466.7</ele>
        <time>2015-01-07T08:40:12Z</time>
      </trkpt>
      <trkpt lat="43.29716" lon="6.0249">
        <ele>469.1</ele>
        <time>2015-01-07T08:40:27Z</time>
      </trkpt>
      <trkpt lat="43.29704" lon="6.02473">
        <ele>470.5</ele>
        <time>2015-01-07T08:40:42Z</time>
      </trkpt>
      <trkpt lat="43.29703" lon="6.02472">
        <ele>470.7</ele>
        <time>2015-01-07T08:40:43Z</time>
      </trkpt>
      <trkpt lat="43.29678" lon="6.02441">
        <ele>473.8</ele>
        <time>2015-01-07T08:41:12Z</time>
      </trkpt>
      <trkpt lat="43.29663" lon="6.02427">
        <ele>474.3</ele>
        <time>2015-01-07T08:41:27Z</time>
      </trkpt>
      <trkpt lat="43.29649" lon="6.02413">
        <ele>474.8</ele>
        <time>2015-01-07T08:41:42Z</time>
      </trkpt>
      <trkpt lat="43.29635" lon="6.02399">
        <ele>475.3</ele>
        <time>2015-01-07T08:41:56Z</time>
      </trkpt>
      <trkpt lat="43.29634" lon="6.02398">
        <ele>475.5</ele>
        <time>2015-01-07T08:41:57Z</time>
      </trkpt>
      <trkpt lat="43.29617" lon="6.02359">
        <ele>477.6</ele>
        <time>2015-01-07T08:42:26Z</time>
      </trkpt>
      <trkpt lat="43.29612" lon="6.02335">
        <ele>478</ele>
        <time>2015-01-07T08:42:42Z</time>
      </trkpt>
      <trkpt lat="43.29606" lon="6.02313">
        <ele>476.2</ele>
        <time>2015-01-07T08:42:58Z</time>
      </trkpt>
      <trkpt lat="43.29605" lon="6.02311">
        <ele>476.1</ele>
        <time>2015-01-07T08:42:59Z</time>
      </trkpt>
      <trkpt lat="43.29588" lon="6.02271">
        <ele>480.2</ele>
        <time>2015-01-07T08:43:28Z</time>
      </trkpt>
      <trkpt lat="43.29576" lon="6.02255">
        <ele>482.2</ele>
        <time>2015-01-07T08:43:43Z</time>
      </trkpt>
      <trkpt lat="43.29561" lon="6.02242">
        <ele>482.2</ele>
        <time>2015-01-07T08:43:59Z</time>
      </trkpt>
      <trkpt lat="43.2956" lon="6.02242">
        <ele>482.3</ele>
        <time>2015-01-07T08:44:00Z</time>
      </trkpt>
      <trkpt lat="43.29527" lon="6.02229">
        <ele>476.2</ele>
        <time>2015-01-07T08:44:32Z</time>
      </trkpt>
      <trkpt lat="43.2951" lon="6.02227">
        <ele>472.7</ele>
        <time>2015-01-07T08:44:49Z</time>
      </trkpt>
      <trkpt lat="43.29492" lon="6.02226">
        <ele>469.5</ele>
        <time>2015-01-07T08:45:08Z</time>
      </trkpt>
      <trkpt lat="43.29491" lon="6.02226">
        <ele>469.5</ele>
        <time>2015-01-07T08:45:09Z</time>
      </trkpt>
      <trkpt lat="43.29458" lon="6.0223">
        <ele>487.3</ele>
        <time>2015-01-07T08:45:33Z</time>
      </trkpt>
      <trkpt lat="43.29441" lon="6.02238">
        <ele>491.5</ele>
        <time>2015-01-07T08:45:48Z</time>
      </trkpt>
      <trkpt lat="43.29424" lon="6.02247">
        <ele>496.5</ele>
        <time>2015-01-07T08:46:13Z</time>
      </trkpt>
      <trkpt lat="43.29423" lon="6.02247">
        <ele>496.5</ele>
        <time>2015-01-07T08:46:14Z</time>
      </trkpt>
      <trkpt lat="43.2939" lon="6.02256">
        <ele>494.7</ele>
        <time>2015-01-07T08:46:45Z</time>
      </trkpt>
      <trkpt lat="43.29373" lon="6.02261">
        <ele>496.7</ele>
        <time>2015-01-07T08:47:01Z</time>
      </trkpt>
      <trkpt lat="43.29356" lon="6.02264">
        <ele>494.2</ele>
        <time>2015-01-07T08:47:18Z</time>
      </trkpt>
      <trkpt lat="43.29355" lon="6.02264">
        <ele>494.7</ele>
        <time>2015-01-07T08:47:19Z</time>
      </trkpt>
      <trkpt lat="43.29321" lon="6.02269">
        <ele>504</ele>
        <time>2015-01-07T08:47:49Z</time>
      </trkpt>
      <trkpt lat="43.29303" lon="6.02269">
        <ele>503.1</ele>
        <time>2015-01-07T08:48:06Z</time>
      </trkpt>
      <trkpt lat="43.29285" lon="6.02267">
        <ele>503.1</ele>
        <time>2015-01-07T08:48:26Z</time>
      </trkpt>
      <trkpt lat="43.29284" lon="6.02267">
        <ele>503.1</ele>
        <time>2015-01-07T08:48:27Z</time>
      </trkpt>
      <trkpt lat="43.29251" lon="6.0226">
        <ele>508.2</ele>
        <time>2015-01-07T08:49:06Z</time>
      </trkpt>
      <trkpt lat="43.29234" lon="6.02251">
        <ele>521.4</ele>
        <time>2015-01-07T08:53:50Z</time>
      </trkpt>
      <trkpt lat="43.29234" lon="6.02251">
        <ele>521.4</ele>
        <time>2015-01-07T08:53:51Z</time>
      </trkpt>
      <trkpt lat="43.29216" lon="6.02251">
        <ele>515.2</ele>
        <time>2015-01-07T09:00:14Z</time>
      </trkpt>
      <trkpt lat="43.29182" lon="6.02253">
        <ele>506.1</ele>
        <time>2015-01-07T09:00:49Z</time>
      </trkpt>
      <trkpt lat="43.29168" lon="6.02239">
        <ele>508.2</ele>
        <time>2015-01-07T09:01:02Z</time>
      </trkpt>
      <trkpt lat="43.29156" lon="6.02223">
        <ele>508.7</ele>
        <time>2015-01-07T09:01:15Z</time>
      </trkpt>
      <trkpt lat="43.29155" lon="6.02222">
        <ele>508.7</ele>
        <time>2015-01-07T09:01:16Z</time>
      </trkpt>
      <trkpt lat="43.29126" lon="6.02199">
        <ele>507.2</ele>
        <time>2015-01-07T09:01:44Z</time>
      </trkpt>
      <trkpt lat="43.29111" lon="6.02188">
        <ele>506.8</ele>
        <time>2015-01-07T09:01:59Z</time>
      </trkpt>
      <trkpt lat="43.29098" lon="6.02172">
        <ele>505.1</ele>
        <time>2015-01-07T09:02:13Z</time>
      </trkpt>
      <trkpt lat="43.29085" lon="6.02155">
        <ele>504.1</ele>
        <time>2015-01-07T09:02:27Z</time>
      </trkpt>
      <trkpt lat="43.29084" lon="6.02154">
        <ele>503.8</ele>
        <time>2015-01-07T09:02:28Z</time>
      </trkpt>
      <trkpt lat="43.29056" lon="6.02128">
        <ele>500.1</ele>
        <time>2015-01-07T09:02:57Z</time>
      </trkpt>
      <trkpt lat="43.29041" lon="6.02114">
        <ele>497.7</ele>
        <time>2015-01-07T09:03:11Z</time>
      </trkpt>
      <trkpt lat="43.29028" lon="6.02099">
        <ele>496.3</ele>
        <time>2015-01-07T09:03:25Z</time>
      </trkpt>
      <trkpt lat="43.29012" lon="6.02088">
        <ele>492.1</ele>
        <time>2015-01-07T09:03:44Z</time>
      </trkpt>
      <trkpt lat="43.29011" lon="6.02087">
        <ele>491.7</ele>
        <time>2015-01-07T09:03:45Z</time>
      </trkpt>
      <trkpt lat="43.2898" lon="6.02068">
        <ele>488.7</ele>
        <time>2015-01-07T09:04:13Z</time>
      </trkpt>
      <trkpt lat="43.28964" lon="6.02056">
        <ele>487.7</ele>
        <time>2015-01-07T09:04:27Z</time>
      </trkpt>
      <trkpt lat="43.28947" lon="6.02049">
        <ele>486.8</ele>
        <time>2015-01-07T09:04:43Z</time>
      </trkpt>
      <trkpt lat="43.28934" lon="6.02033">
        <ele>488.1</ele>
        <time>2015-01-07T09:04:56Z</time>
      </trkpt>
      <trkpt lat="43.28933" lon="6.02031">
        <ele>488</ele>
        <time>2015-01-07T09:04:57Z</time>
      </trkpt>
      <trkpt lat="43.28904" lon="6.02027">
        <ele>487</ele>
        <time>2015-01-07T09:05:26Z</time>
      </trkpt>
      <trkpt lat="43.28887" lon="6.02021">
        <ele>488.8</ele>
        <time>2015-01-07T09:05:39Z</time>
      </trkpt>
      <trkpt lat="43.28871" lon="6.02013">
        <ele>489.2</ele>
        <time>2015-01-07T09:05:52Z</time>
      </trkpt>
      <trkpt lat="43.28858" lon="6.01998">
        <ele>485.7</ele>
        <time>2015-01-07T09:06:05Z</time>
      </trkpt>
      <trkpt lat="43.28857" lon="6.01997">
        <ele>486.2</ele>
        <time>2015-01-07T09:06:06Z</time>
      </trkpt>
      <trkpt lat="43.28834" lon="6.01963">
        <ele>486.7</ele>
        <time>2015-01-07T09:06:32Z</time>
      </trkpt>
      <trkpt lat="43.28824" lon="6.01945">
        <ele>485.5</ele>
        <time>2015-01-07T09:06:46Z</time>
      </trkpt>
      <trkpt lat="43.28815" lon="6.01926">
        <ele>484</ele>
        <time>2015-01-07T09:07:00Z</time>
      </trkpt>
      <trkpt lat="43.28804" lon="6.01906">
        <ele>483.7</ele>
        <time>2015-01-07T09:07:14Z</time>
      </trkpt>
      <trkpt lat="43.28803" lon="6.01905">
        <ele>483.3</ele>
        <time>2015-01-07T09:07:15Z</time>
      </trkpt>
      <trkpt lat="43.28778" lon="6.01875">
        <ele>481.3</ele>
        <time>2015-01-07T09:07:44Z</time>
      </trkpt>
      <trkpt lat="43.28762" lon="6.01865">
        <ele>482</ele>
        <time>2015-01-07T09:07:59Z</time>
      </trkpt>
      <trkpt lat="43.28746" lon="6.0186">
        <ele>481.3</ele>
        <time>2015-01-07T09:08:15Z</time>
      </trkpt>
      <trkpt lat="43.28745" lon="6.0186">
        <ele>481.2</ele>
        <time>2015-01-07T09:08:16Z</time>
      </trkpt>
      <trkpt lat="43.28711" lon="6.01851">
        <ele>482</ele>
        <time>2015-01-07T09:08:47Z</time>
      </trkpt>
      <trkpt lat="43.28694" lon="6.01846">
        <ele>485.7</ele>
        <time>2015-01-07T09:09:02Z</time>
      </trkpt>
      <trkpt lat="43.2868" lon="6.01831">
        <ele>488.2</ele>
        <time>2015-01-07T09:11:26Z</time>
      </trkpt>
      <trkpt lat="43.28679" lon="6.0183">
        <ele>487.7</ele>
        <time>2015-01-07T09:11:27Z</time>
      </trkpt>
      <trkpt lat="43.28647" lon="6.01815">
        <ele>480.1</ele>
        <time>2015-01-07T09:12:05Z</time>
      </trkpt>
      <trkpt lat="43.28631" lon="6.01806">
        <ele>481.8</ele>
        <time>2015-01-07T09:12:21Z</time>
      </trkpt>
      <trkpt lat="43.28617" lon="6.01791">
        <ele>485.2</ele>
        <time>2015-01-07T09:12:45Z</time>
      </trkpt>
      <trkpt lat="43.28617" lon="6.0179">
        <ele>485.6</ele>
        <time>2015-01-07T09:12:46Z</time>
      </trkpt>
      <trkpt lat="43.2859" lon="6.0176">
        <ele>484.3</ele>
        <time>2015-01-07T09:13:24Z</time>
      </trkpt>
      <trkpt lat="43.28577" lon="6.01744">
        <ele>484.7</ele>
        <time>2015-01-07T09:13:37Z</time>
      </trkpt>
      <trkpt lat="43.28564" lon="6.01728">
        <ele>483.7</ele>
        <time>2015-01-07T09:13:50Z</time>
      </trkpt>
      <trkpt lat="43.28564" lon="6.01727">
        <ele>483.6</ele>
        <time>2015-01-07T09:13:51Z</time>
      </trkpt>
      <trkpt lat="43.28538" lon="6.01697">
        <ele>481.7</ele>
        <time>2015-01-07T09:14:19Z</time>
      </trkpt>
      <trkpt lat="43.28521" lon="6.01689">
        <ele>476.6</ele>
        <time>2015-01-07T09:14:36Z</time>
      </trkpt>
      <trkpt lat="43.28508" lon="6.01674">
        <ele>476.8</ele>
        <time>2015-01-07T09:14:50Z</time>
      </trkpt>
      <trkpt lat="43.28495" lon="6.01657">
        <ele>477.7</ele>
        <time>2015-01-07T09:15:05Z</time>
      </trkpt>
      <trkpt lat="43.28494" lon="6.01656">
        <ele>477.6</ele>
        <time>2015-01-07T09:15:06Z</time>
      </trkpt>
      <trkpt lat="43.28462" lon="6.01636">
        <ele>472.2</ele>
        <time>2015-01-07T09:15:39Z</time>
      </trkpt>
      <trkpt lat="43.28449" lon="6.0162">
        <ele>475.1</ele>
        <time>2015-01-07T09:15:54Z</time>
      </trkpt>
      <trkpt lat="43.28437" lon="6.01603">
        <ele>474.7</ele>
        <time>2015-01-07T09:16:08Z</time>
      </trkpt>
      <trkpt lat="43.28436" lon="6.01602">
        <ele>474.7</ele>
        <time>2015-01-07T09:16:09Z</time>
      </trkpt>
      <trkpt lat="43.28406" lon="6.01581">
        <ele>474.2</ele>
        <time>2015-01-07T09:17:14Z</time>
      </trkpt>
      <trkpt lat="43.28405" lon="6.01581">
        <ele>474.1</ele>
        <time>2015-01-07T09:17:15Z</time>
      </trkpt>
      <trkpt lat="43.28373" lon="6.01564">
        <ele>477.6</ele>
        <time>2015-01-07T09:17:49Z</time>
      </trkpt>
      <trkpt lat="43.28357" lon="6.01555">
        <ele>478.3</ele>
        <time>2015-01-07T09:18:05Z</time>
      </trkpt>
      <trkpt lat="43.28343" lon="6.0154">
        <ele>478.5</ele>
        <time>2015-01-07T09:18:20Z</time>
      </trkpt>
      <trkpt lat="43.28342" lon="6.01538">
        <ele>478.5</ele>
        <time>2015-01-07T09:18:21Z</time>
      </trkpt>
      <trkpt lat="43.28312" lon="6.01523">
        <ele>474.2</ele>
        <time>2015-01-07T09:19:00Z</time>
      </trkpt>
      <trkpt lat="43.28296" lon="6.01516">
        <ele>475.7</ele>
        <time>2015-01-07T09:19:12Z</time>
      </trkpt>
      <trkpt lat="43.2828" lon="6.01509">
        <ele>476.3</ele>
        <time>2015-01-07T09:19:25Z</time>
      </trkpt>
      <trkpt lat="43.28278" lon="6.01508">
        <ele>476.6</ele>
        <time>2015-01-07T09:19:26Z</time>
      </trkpt>
      <trkpt lat="43.28247" lon="6.0149">
        <ele>479.8</ele>
        <time>2015-01-07T09:19:54Z</time>
      </trkpt>
      <trkpt lat="43.2823" lon="6.01481">
        <ele>479.3</ele>
        <time>2015-01-07T09:20:11Z</time>
      </trkpt>
      <trkpt lat="43.28214" lon="6.01473">
        <ele>479</ele>
        <time>2015-01-07T09:20:27Z</time>
      </trkpt>
      <trkpt lat="43.28213" lon="6.01472">
        <ele>479.1</ele>
        <time>2015-01-07T09:20:28Z</time>
      </trkpt>
      <trkpt lat="43.28183" lon="6.01453">
        <ele>482.7</ele>
        <time>2015-01-07T09:20:56Z</time>
      </trkpt>
      <trkpt lat="43.28165" lon="6.01448">
        <ele>487.5</ele>
        <time>2015-01-07T09:22:09Z</time>
      </trkpt>
      <trkpt lat="43.28165" lon="6.01448">
        <ele>487.7</ele>
        <time>2015-01-07T09:22:10Z</time>
      </trkpt>
      <trkpt lat="43.28159" lon="6.01495">
        <ele>481.2</ele>
        <time>2015-01-07T09:23:02Z</time>
      </trkpt>
      <trkpt lat="43.28161" lon="6.01519">
        <ele>479</ele>
        <time>2015-01-07T09:23:24Z</time>
      </trkpt>
      <trkpt lat="43.28161" lon="6.0152">
        <ele>479</ele>
        <time>2015-01-07T09:23:25Z</time>
      </trkpt>
      <trkpt lat="43.28174" lon="6.01564">
        <ele>492.8</ele>
        <time>2015-01-07T09:24:09Z</time>
      </trkpt>
      <trkpt lat="43.28168" lon="6.01588">
        <ele>499.2</ele>
        <time>2015-01-07T09:24:32Z</time>
      </trkpt>
      <trkpt lat="43.28168" lon="6.01588">
        <ele>499</ele>
        <time>2015-01-07T09:24:33Z</time>
      </trkpt>
      <trkpt lat="43.28158" lon="6.01633">
        <ele>498.6</ele>
        <time>2015-01-07T09:25:13Z</time>
      </trkpt>
      <trkpt lat="43.28151" lon="6.01656">
        <ele>500.3</ele>
        <time>2015-01-07T09:25:33Z</time>
      </trkpt>
      <trkpt lat="43.28151" lon="6.01657">
        <ele>500.6</ele>
        <time>2015-01-07T09:25:34Z</time>
      </trkpt>
      <trkpt lat="43.28138" lon="6.017">
        <ele>503.7</ele>
        <time>2015-01-07T09:26:09Z</time>
      </trkpt>
      <trkpt lat="43.28127" lon="6.01719">
        <ele>505.2</ele>
        <time>2015-01-07T09:26:26Z</time>
      </trkpt>
      <trkpt lat="43.28114" lon="6.01734">
        <ele>508.1</ele>
        <time>2015-01-07T09:26:42Z</time>
      </trkpt>
      <trkpt lat="43.28113" lon="6.01736">
        <ele>508.2</ele>
        <time>2015-01-07T09:26:43Z</time>
      </trkpt>
      <trkpt lat="43.28083" lon="6.01758">
        <ele>502</ele>
        <time>2015-01-07T09:27:18Z</time>
      </trkpt>
      <trkpt lat="43.28066" lon="6.01765">
        <ele>500.2</ele>
        <time>2015-01-07T09:27:36Z</time>
      </trkpt>
      <trkpt lat="43.28049" lon="6.01769">
        <ele>512</ele>
        <time>2015-01-07T09:30:13Z</time>
      </trkpt>
      <trkpt lat="43.28049" lon="6.01769">
        <ele>512</ele>
        <time>2015-01-07T09:30:14Z</time>
      </trkpt>
      <trkpt lat="43.28048" lon="6.01816">
        <ele>504.6</ele>
        <time>2015-01-07T09:30:54Z</time>
      </trkpt>
      <trkpt lat="43.28048" lon="6.01841">
        <ele>506.6</ele>
        <time>2015-01-07T09:31:09Z</time>
      </trkpt>
      <trkpt lat="43.28045" lon="6.01864">
        <ele>507.3</ele>
        <time>2015-01-07T09:31:23Z</time>
      </trkpt>
      <trkpt lat="43.28044" lon="6.01865">
        <ele>507.3</ele>
        <time>2015-01-07T09:31:24Z</time>
      </trkpt>
      <trkpt lat="43.28026" lon="6.01903">
        <ele>507.7</ele>
        <time>2015-01-07T09:31:57Z</time>
      </trkpt>
      <trkpt lat="43.2802" lon="6.01925">
        <ele>505.6</ele>
        <time>2015-01-07T09:32:15Z</time>
      </trkpt>
      <trkpt lat="43.28012" lon="6.01948">
        <ele>505.5</ele>
        <time>2015-01-07T09:32:37Z</time>
      </trkpt>
      <trkpt lat="43.28012" lon="6.01949">
        <ele>505.5</ele>
        <time>2015-01-07T09:32:38Z</time>
      </trkpt>
      <trkpt lat="43.27993" lon="6.01988">
        <ele>508.8</ele>
        <time>2015-01-07T09:33:37Z</time>
      </trkpt>
      <trkpt lat="43.27987" lon="6.02011">
        <ele>507</ele>
        <time>2015-01-07T09:33:54Z</time>
      </trkpt>
      <trkpt lat="43.27987" lon="6.02012">
        <ele>506.8</ele>
        <time>2015-01-07T09:33:55Z</time>
      </trkpt>
      <trkpt lat="43.27975" lon="6.02055">
        <ele>505.5</ele>
        <time>2015-01-07T09:34:24Z</time>
      </trkpt>
      <trkpt lat="43.27962" lon="6.02073">
        <ele>503.7</ele>
        <time>2015-01-07T09:34:39Z</time>
      </trkpt>
      <trkpt lat="43.27949" lon="6.02089">
        <ele>503</ele>
        <time>2015-01-07T09:34:54Z</time>
      </trkpt>
      <trkpt lat="43.27937" lon="6.02106">
        <ele>502.6</ele>
        <time>2015-01-07T09:35:09Z</time>
      </trkpt>
      <trkpt lat="43.27936" lon="6.02107">
        <ele>502.5</ele>
        <time>2015-01-07T09:35:10Z</time>
      </trkpt>
      <trkpt lat="43.27909" lon="6.02136">
        <ele>500.1</ele>
        <time>2015-01-07T09:35:39Z</time>
      </trkpt>
      <trkpt lat="43.27896" lon="6.02151">
        <ele>501.1</ele>
        <time>2015-01-07T09:35:56Z</time>
      </trkpt>
      <trkpt lat="43.27884" lon="6.02169">
        <ele>500.6</ele>
        <time>2015-01-07T09:36:13Z</time>
      </trkpt>
      <trkpt lat="43.27884" lon="6.0217">
        <ele>500.5</ele>
        <time>2015-01-07T09:36:14Z</time>
      </trkpt>
      <trkpt lat="43.27875" lon="6.02214">
        <ele>500.7</ele>
        <time>2015-01-07T09:36:44Z</time>
      </trkpt>
      <trkpt lat="43.27872" lon="6.02238">
        <ele>501.8</ele>
        <time>2015-01-07T09:37:24Z</time>
      </trkpt>
      <trkpt lat="43.27872" lon="6.02239">
        <ele>501.8</ele>
        <time>2015-01-07T09:37:25Z</time>
      </trkpt>
      <trkpt lat="43.27888" lon="6.0228">
        <ele>500.3</ele>
        <time>2015-01-07T09:38:00Z</time>
      </trkpt>
      <trkpt lat="43.27892" lon="6.02303">
        <ele>501.6</ele>
        <time>2015-01-07T09:38:15Z</time>
      </trkpt>
      <trkpt lat="43.279" lon="6.02325">
        <ele>500.7</ele>
        <time>2015-01-07T09:38:30Z</time>
      </trkpt>
      <trkpt lat="43.279" lon="6.02326">
        <ele>500.8</ele>
        <time>2015-01-07T09:38:31Z</time>
      </trkpt>
      <trkpt lat="43.27928" lon="6.02353">
        <ele>499.7</ele>
        <time>2015-01-07T09:39:00Z</time>
      </trkpt>
      <trkpt lat="43.27941" lon="6.02369">
        <ele>498.8</ele>
        <time>2015-01-07T09:39:18Z</time>
      </trkpt>
      <trkpt lat="43.27956" lon="6.0238">
        <ele>499.7</ele>
        <time>2015-01-07T09:39:32Z</time>
      </trkpt>
      <trkpt lat="43.27957" lon="6.02381">
        <ele>500.1</ele>
        <time>2015-01-07T09:39:33Z</time>
      </trkpt>
      <trkpt lat="43.2798" lon="6.02413">
        <ele>500.7</ele>
        <time>2015-01-07T09:40:01Z</time>
      </trkpt>
      <trkpt lat="43.27985" lon="6.02436">
        <ele>502.1</ele>
        <time>2015-01-07T09:40:16Z</time>
      </trkpt>
      <trkpt lat="43.27989" lon="6.02459">
        <ele>501.8</ele>
        <time>2015-01-07T09:40:32Z</time>
      </trkpt>
      <trkpt lat="43.27993" lon="6.02483">
        <ele>504.6</ele>
        <time>2015-01-07T09:40:47Z</time>
      </trkpt>
      <trkpt lat="43.27994" lon="6.02484">
        <ele>504.1</ele>
        <time>2015-01-07T09:40:48Z</time>
      </trkpt>
      <trkpt lat="43.28003" lon="6.02529">
        <ele>505.2</ele>
        <time>2015-01-07T09:41:36Z</time>
      </trkpt>
      <trkpt lat="43.27989" lon="6.02543">
        <ele>500.8</ele>
        <time>2015-01-07T09:42:02Z</time>
      </trkpt>
      <trkpt lat="43.27988" lon="6.02543">
        <ele>500.5</ele>
        <time>2015-01-07T09:42:03Z</time>
      </trkpt>
      <trkpt lat="43.27954" lon="6.02548">
        <ele>499.2</ele>
        <time>2015-01-07T09:42:32Z</time>
      </trkpt>
      <trkpt lat="43.27937" lon="6.02549">
        <ele>496.7</ele>
        <time>2015-01-07T09:42:47Z</time>
      </trkpt>
      <trkpt lat="43.2792" lon="6.02549">
        <ele>499</ele>
        <time>2015-01-07T09:43:01Z</time>
      </trkpt>
      <trkpt lat="43.27903" lon="6.02549">
        <ele>499.8</ele>
        <time>2015-01-07T09:43:15Z</time>
      </trkpt>
      <trkpt lat="43.27901" lon="6.02549">
        <ele>500</ele>
        <time>2015-01-07T09:43:16Z</time>
      </trkpt>
      <trkpt lat="43.27868" lon="6.02552">
        <ele>501.7</ele>
        <time>2015-01-07T09:43:45Z</time>
      </trkpt>
      <trkpt lat="43.27851" lon="6.02551">
        <ele>503.5</ele>
        <time>2015-01-07T09:43:58Z</time>
      </trkpt>
      <trkpt lat="43.27834" lon="6.02551">
        <ele>503.8</ele>
        <time>2015-01-07T09:44:12Z</time>
      </trkpt>
      <trkpt lat="43.27816" lon="6.02553">
        <ele>501.1</ele>
        <time>2015-01-07T09:44:29Z</time>
      </trkpt>
      <trkpt lat="43.27815" lon="6.02553">
        <ele>500.8</ele>
        <time>2015-01-07T09:44:30Z</time>
      </trkpt>
      <trkpt lat="43.27782" lon="6.02555">
        <ele>500.5</ele>
        <time>2015-01-07T09:45:00Z</time>
      </trkpt>
      <trkpt lat="43.27765" lon="6.02554">
        <ele>501</ele>
        <time>2015-01-07T09:45:15Z</time>
      </trkpt>
      <trkpt lat="43.27747" lon="6.02554">
        <ele>503.2</ele>
        <time>2015-01-07T09:45:31Z</time>
      </trkpt>
      <trkpt lat="43.27747" lon="6.02554">
        <ele>503.1</ele>
        <time>2015-01-07T09:45:32Z</time>
      </trkpt>
      <trkpt lat="43.27712" lon="6.02551">
        <ele>505.6</ele>
        <time>2015-01-07T09:46:05Z</time>
      </trkpt>
      <trkpt lat="43.27695" lon="6.02546">
        <ele>506</ele>
        <time>2015-01-07T09:46:22Z</time>
      </trkpt>
      <trkpt lat="43.27677" lon="6.02541">
        <ele>507.7</ele>
        <time>2015-01-07T09:46:38Z</time>
      </trkpt>
      <trkpt lat="43.27676" lon="6.02541">
        <ele>507.7</ele>
        <time>2015-01-07T09:46:39Z</time>
      </trkpt>
      <trkpt lat="43.27643" lon="6.02543">
        <ele>508</ele>
        <time>2015-01-07T09:47:11Z</time>
      </trkpt>
      <trkpt lat="43.27628" lon="6.02554">
        <ele>503</ele>
        <time>2015-01-07T09:47:29Z</time>
      </trkpt>
      <trkpt lat="43.27611" lon="6.02562">
        <ele>506.8</ele>
        <time>2015-01-07T09:47:43Z</time>
      </trkpt>
      <trkpt lat="43.2761" lon="6.02562">
        <ele>506.7</ele>
        <time>2015-01-07T09:47:44Z</time>
      </trkpt>
      <trkpt lat="43.27576" lon="6.02558">
        <ele>509</ele>
        <time>2015-01-07T09:48:12Z</time>
      </trkpt>
      <trkpt lat="43.27559" lon="6.02558">
        <ele>509.1</ele>
        <time>2015-01-07T09:48:27Z</time>
      </trkpt>
      <trkpt lat="43.27542" lon="6.02558">
        <ele>511.1</ele>
        <time>2015-01-07T09:48:41Z</time>
      </trkpt>
      <trkpt lat="43.27524" lon="6.02555">
        <ele>511.1</ele>
        <time>2015-01-07T09:48:55Z</time>
      </trkpt>
      <trkpt lat="43.27523" lon="6.02554">
        <ele>511.2</ele>
        <time>2015-01-07T09:48:56Z</time>
      </trkpt>
      <trkpt lat="43.27491" lon="6.0254">
        <ele>516.2</ele>
        <time>2015-01-07T09:49:22Z</time>
      </trkpt>
      <trkpt lat="43.27473" lon="6.0254">
        <ele>520.2</ele>
        <time>2015-01-07T09:57:48Z</time>
      </trkpt>
      <trkpt lat="43.27472" lon="6.0254">
        <ele>520.2</ele>
        <time>2015-01-07T09:57:49Z</time>
      </trkpt>
      <trkpt lat="43.27443" lon="6.02566">
        <ele>519.7</ele>
        <time>2015-01-07T09:58:27Z</time>
      </trkpt>
      <trkpt lat="43.27426" lon="6.02566">
        <ele>520.5</ele>
        <time>2015-01-07T09:58:44Z</time>
      </trkpt>
      <trkpt lat="43.2741" lon="6.02574">
        <ele>521.2</ele>
        <time>2015-01-07T09:59:02Z</time>
      </trkpt>
      <trkpt lat="43.27409" lon="6.02575">
        <ele>521.2</ele>
        <time>2015-01-07T09:59:03Z</time>
      </trkpt>
      <trkpt lat="43.27382" lon="6.02601">
        <ele>520.7</ele>
        <time>2015-01-07T09:59:36Z</time>
      </trkpt>
      <trkpt lat="43.27369" lon="6.02619">
        <ele>523.4</ele>
        <time>2015-01-07T09:59:51Z</time>
      </trkpt>
      <trkpt lat="43.27356" lon="6.02634">
        <ele>524.4</ele>
        <time>2015-01-07T10:00:06Z</time>
      </trkpt>
      <trkpt lat="43.27355" lon="6.02635">
        <ele>524.5</ele>
        <time>2015-01-07T10:00:07Z</time>
      </trkpt>
      <trkpt lat="43.27327" lon="6.02659">
        <ele>526.4</ele>
        <time>2015-01-07T10:00:36Z</time>
      </trkpt>
      <trkpt lat="43.2731" lon="6.0267">
        <ele>527.2</ele>
        <time>2015-01-07T10:00:52Z</time>
      </trkpt>
      <trkpt lat="43.27296" lon="6.02683">
        <ele>528.4</ele>
        <time>2015-01-07T10:01:07Z</time>
      </trkpt>
      <trkpt lat="43.27295" lon="6.02683">
        <ele>528.5</ele>
        <time>2015-01-07T10:01:08Z</time>
      </trkpt>
      <trkpt lat="43.27264" lon="6.027">
        <ele>530.7</ele>
        <time>2015-01-07T10:01:36Z</time>
      </trkpt>
      <trkpt lat="43.2725" lon="6.02714">
        <ele>530.4</ele>
        <time>2015-01-07T10:01:52Z</time>
      </trkpt>
      <trkpt lat="43.27233" lon="6.02723">
        <ele>530</ele>
        <time>2015-01-07T10:02:08Z</time>
      </trkpt>
      <trkpt lat="43.27232" lon="6.02724">
        <ele>530.2</ele>
        <time>2015-01-07T10:02:09Z</time>
      </trkpt>
      <trkpt lat="43.27202" lon="6.02744">
        <ele>526.5</ele>
        <time>2015-01-07T10:02:41Z</time>
      </trkpt>
      <trkpt lat="43.27185" lon="6.0275">
        <ele>529.7</ele>
        <time>2015-01-07T10:02:55Z</time>
      </trkpt>
      <trkpt lat="43.27173" lon="6.02768">
        <ele>531</ele>
        <time>2015-01-07T10:03:12Z</time>
      </trkpt>
      <trkpt lat="43.27173" lon="6.02769">
        <ele>531</ele>
        <time>2015-01-07T10:03:13Z</time>
      </trkpt>
      <trkpt lat="43.27146" lon="6.02798">
        <ele>525.7</ele>
        <time>2015-01-07T10:03:45Z</time>
      </trkpt>
      <trkpt lat="43.2713" lon="6.02805">
        <ele>526.7</ele>
        <time>2015-01-07T10:04:03Z</time>
      </trkpt>
      <trkpt lat="43.27115" lon="6.02818">
        <ele>526.7</ele>
        <time>2015-01-07T10:04:23Z</time>
      </trkpt>
      <trkpt lat="43.27114" lon="6.02819">
        <ele>526.2</ele>
        <time>2015-01-07T10:04:24Z</time>
      </trkpt>
      <trkpt lat="43.27084" lon="6.02841">
        <ele>519.4</ele>
        <time>2015-01-07T10:04:58Z</time>
      </trkpt>
      <trkpt lat="43.27068" lon="6.0285">
        <ele>531.5</ele>
        <time>2015-01-07T10:05:13Z</time>
      </trkpt>
      <trkpt lat="43.27052" lon="6.0286">
        <ele>538.4</ele>
        <time>2015-01-07T10:05:31Z</time>
      </trkpt>
      <trkpt lat="43.27051" lon="6.02861">
        <ele>538.9</ele>
        <time>2015-01-07T10:05:32Z</time>
      </trkpt>
      <trkpt lat="43.27019" lon="6.02869">
        <ele>543</ele>
        <time>2015-01-07T10:06:04Z</time>
      </trkpt>
      <trkpt lat="43.27001" lon="6.02866">
        <ele>533.2</ele>
        <time>2015-01-07T10:06:23Z</time>
      </trkpt>
      <trkpt lat="43.26985" lon="6.02858">
        <ele>531.5</ele>
        <time>2015-01-07T10:06:39Z</time>
      </trkpt>
      <trkpt lat="43.26984" lon="6.02857">
        <ele>531.7</ele>
        <time>2015-01-07T10:06:40Z</time>
      </trkpt>
      <trkpt lat="43.26952" lon="6.02845">
        <ele>537.7</ele>
        <time>2015-01-07T10:07:11Z</time>
      </trkpt>
      <trkpt lat="43.26938" lon="6.02828">
        <ele>546.9</ele>
        <time>2015-01-07T10:07:47Z</time>
      </trkpt>
      <trkpt lat="43.26938" lon="6.02828">
        <ele>547</ele>
        <time>2015-01-07T10:07:48Z</time>
      </trkpt>
      <trkpt lat="43.26911" lon="6.02803">
        <ele>550</ele>
        <time>2015-01-07T10:08:25Z</time>
      </trkpt>
      <trkpt lat="43.26894" lon="6.02797">
        <ele>551</ele>
        <time>2015-01-07T10:08:42Z</time>
      </trkpt>
      <trkpt lat="43.26877" lon="6.02793">
        <ele>552</ele>
        <time>2015-01-07T10:14:39Z</time>
      </trkpt>
      <trkpt lat="43.26876" lon="6.02793">
        <ele>552</ele>
        <time>2015-01-07T10:14:40Z</time>
      </trkpt>
      <trkpt lat="43.26848" lon="6.02765">
        <ele>551.7</ele>
        <time>2015-01-07T10:15:36Z</time>
      </trkpt>
      <trkpt lat="43.26861" lon="6.0278">
        <ele>549</ele>
        <time>2015-01-07T10:18:44Z</time>
      </trkpt>
      <trkpt lat="43.26862" lon="6.02781">
        <ele>549</ele>
        <time>2015-01-07T10:18:45Z</time>
      </trkpt>
      <trkpt lat="43.26894" lon="6.02794">
        <ele>547.5</ele>
        <time>2015-01-07T10:19:19Z</time>
      </trkpt>
      <trkpt lat="43.26912" lon="6.02799">
        <ele>549.4</ele>
        <time>2015-01-07T10:19:56Z</time>
      </trkpt>
      <trkpt lat="43.26912" lon="6.02799">
        <ele>549.5</ele>
        <time>2015-01-07T10:19:57Z</time>
      </trkpt>
      <trkpt lat="43.26928" lon="6.0281">
        <ele>550</ele>
        <time>2015-01-07T10:21:16Z</time>
      </trkpt>
      <trkpt lat="43.26955" lon="6.02838">
        <ele>545.7</ele>
        <time>2015-01-07T10:21:56Z</time>
      </trkpt>
      <trkpt lat="43.26972" lon="6.02843">
        <ele>542.9</ele>
        <time>2015-01-07T10:22:14Z</time>
      </trkpt>
      <trkpt lat="43.26987" lon="6.02854">
        <ele>542.2</ele>
        <time>2015-01-07T10:22:31Z</time>
      </trkpt>
      <trkpt lat="43.26988" lon="6.02854">
        <ele>542</ele>
        <time>2015-01-07T10:22:32Z</time>
      </trkpt>
      <trkpt lat="43.2702" lon="6.02863">
        <ele>540</ele>
        <time>2015-01-07T10:23:04Z</time>
      </trkpt>
      <trkpt lat="43.27037" lon="6.02872">
        <ele>541.7</ele>
        <time>2015-01-07T10:23:22Z</time>
      </trkpt>
      <trkpt lat="43.27034" lon="6.02896">
        <ele>544.2</ele>
        <time>2015-01-07T10:23:45Z</time>
      </trkpt>
      <trkpt lat="43.27033" lon="6.02896">
        <ele>544.4</ele>
        <time>2015-01-07T10:23:46Z</time>
      </trkpt>
      <trkpt lat="43.27012" lon="6.02932">
        <ele>545.9</ele>
        <time>2015-01-07T10:24:30Z</time>
      </trkpt>
      <trkpt lat="43.27001" lon="6.02952">
        <ele>545.7</ele>
        <time>2015-01-07T10:24:50Z</time>
      </trkpt>
      <trkpt lat="43.27001" lon="6.02953">
        <ele>545.7</ele>
        <time>2015-01-07T10:24:51Z</time>
      </trkpt>
      <trkpt lat="43.26988" lon="6.02996">
        <ele>547.7</ele>
        <time>2015-01-07T10:25:32Z</time>
      </trkpt>
      <trkpt lat="43.2698" lon="6.03017">
        <ele>551.4</ele>
        <time>2015-01-07T10:25:50Z</time>
      </trkpt>
      <trkpt lat="43.26973" lon="6.0304">
        <ele>549.7</ele>
        <time>2015-01-07T10:26:15Z</time>
      </trkpt>
      <trkpt lat="43.26973" lon="6.03041">
        <ele>549.7</ele>
        <time>2015-01-07T10:26:16Z</time>
      </trkpt>
      <trkpt lat="43.26967" lon="6.03086">
        <ele>549.2</ele>
        <time>2015-01-07T10:26:57Z</time>
      </trkpt>
      <trkpt lat="43.26962" lon="6.0311">
        <ele>546.4</ele>
        <time>2015-01-07T10:27:19Z</time>
      </trkpt>
      <trkpt lat="43.26962" lon="6.03111">
        <ele>546.9</ele>
        <time>2015-01-07T10:27:20Z</time>
      </trkpt>
      <trkpt lat="43.26954" lon="6.03157">
        <ele>549.2</ele>
        <time>2015-01-07T10:27:56Z</time>
      </trkpt>
      <trkpt lat="43.26956" lon="6.03179">
        <ele>543.4</ele>
        <time>2015-01-07T10:28:22Z</time>
      </trkpt>
      <trkpt lat="43.26956" lon="6.03181">
        <ele>544.2</ele>
        <time>2015-01-07T10:28:23Z</time>
      </trkpt>
      <trkpt lat="43.26965" lon="6.03225">
        <ele>546.7</ele>
        <time>2015-01-07T10:29:02Z</time>
      </trkpt>
      <trkpt lat="43.2697" lon="6.03247">
        <ele>548</ele>
        <time>2015-01-07T10:29:22Z</time>
      </trkpt>
      <trkpt lat="43.26976" lon="6.0327">
        <ele>556</ele>
        <time>2015-01-07T10:29:41Z</time>
      </trkpt>
      <trkpt lat="43.26976" lon="6.03271">
        <ele>556</ele>
        <time>2015-01-07T10:29:42Z</time>
      </trkpt>
      <trkpt lat="43.26986" lon="6.03316">
        <ele>556.7</ele>
        <time>2015-01-07T10:30:26Z</time>
      </trkpt>
      <trkpt lat="43.26988" lon="6.0334">
        <ele>562.4</ele>
        <time>2015-01-07T10:30:45Z</time>
      </trkpt>
      <trkpt lat="43.26988" lon="6.03341">
        <ele>562.4</ele>
        <time>2015-01-07T10:30:46Z</time>
      </trkpt>
      <trkpt lat="43.2699" lon="6.03387">
        <ele>564.5</ele>
        <time>2015-01-07T10:31:35Z</time>
      </trkpt>
      <trkpt lat="43.26992" lon="6.03411">
        <ele>563</ele>
        <time>2015-01-07T10:31:57Z</time>
      </trkpt>
      <trkpt lat="43.26992" lon="6.03412">
        <ele>562.9</ele>
        <time>2015-01-07T10:31:58Z</time>
      </trkpt>
      <trkpt lat="43.26991" lon="6.03458">
        <ele>573.4</ele>
        <time>2015-01-07T10:33:00Z</time>
      </trkpt>
      <trkpt lat="43.26991" lon="6.03459">
        <ele>574.4</ele>
        <time>2015-01-07T10:33:01Z</time>
      </trkpt>
      <trkpt lat="43.26981" lon="6.03505">
        <ele>577.5</ele>
        <time>2015-01-07T10:33:46Z</time>
      </trkpt>
      <trkpt lat="43.2698" lon="6.03529">
        <ele>579.5</ele>
        <time>2015-01-07T10:34:14Z</time>
      </trkpt>
      <trkpt lat="43.2698" lon="6.0353">
        <ele>579.7</ele>
        <time>2015-01-07T10:34:15Z</time>
      </trkpt>
      <trkpt lat="43.26988" lon="6.03576">
        <ele>595</ele>
        <time>2015-01-07T10:35:14Z</time>
      </trkpt>
      <trkpt lat="43.26993" lon="6.03599">
        <ele>593.9</ele>
        <time>2015-01-07T10:35:46Z</time>
      </trkpt>
      <trkpt lat="43.26993" lon="6.036">
        <ele>593.9</ele>
        <time>2015-01-07T10:35:47Z</time>
      </trkpt>
      <trkpt lat="43.27002" lon="6.03646">
        <ele>601.2</ele>
        <time>2015-01-07T10:36:37Z</time>
      </trkpt>
      <trkpt lat="43.27006" lon="6.03669">
        <ele>609.7</ele>
        <time>2015-01-07T10:37:12Z</time>
      </trkpt>
      <trkpt lat="43.27006" lon="6.0367">
        <ele>609.9</ele>
        <time>2015-01-07T10:37:13Z</time>
      </trkpt>
      <trkpt lat="43.27009" lon="6.03718">
        <ele>617.7</ele>
        <time>2015-01-07T10:38:29Z</time>
      </trkpt>
      <trkpt lat="43.27008" lon="6.03719">
        <ele>617</ele>
        <time>2015-01-07T10:38:30Z</time>
      </trkpt>
      <trkpt lat="43.27018" lon="6.03765">
        <ele>628.2</ele>
        <time>2015-01-07T10:39:44Z</time>
      </trkpt>
      <trkpt lat="43.27018" lon="6.03766">
        <ele>628</ele>
        <time>2015-01-07T10:39:45Z</time>
      </trkpt>
      <trkpt lat="43.26997" lon="6.03793">
        <ele>641.5</ele>
        <time>2015-01-07T10:42:02Z</time>
      </trkpt>
      <trkpt lat="43.26996" lon="6.03792">
        <ele>640.5</ele>
        <time>2015-01-07T10:42:03Z</time>
      </trkpt>
      <trkpt lat="43.26992" lon="6.03841">
        <ele>642.2</ele>
        <time>2015-01-07T10:43:28Z</time>
      </trkpt>
      <trkpt lat="43.26992" lon="6.03842">
        <ele>642</ele>
        <time>2015-01-07T10:43:29Z</time>
      </trkpt>
      <trkpt lat="43.26971" lon="6.03879">
        <ele>655.9</ele>
        <time>2015-01-07T10:44:35Z</time>
      </trkpt>
      <trkpt lat="43.2697" lon="6.0388">
        <ele>656</ele>
        <time>2015-01-07T10:44:36Z</time>
      </trkpt>
      <trkpt lat="43.26943" lon="6.0391">
        <ele>662.7</ele>
        <time>2015-01-07T10:45:40Z</time>
      </trkpt>
      <trkpt lat="43.26943" lon="6.03911">
        <ele>662.9</ele>
        <time>2015-01-07T10:45:41Z</time>
      </trkpt>
      <trkpt lat="43.26921" lon="6.03947">
        <ele>671.4</ele>
        <time>2015-01-07T10:46:46Z</time>
      </trkpt>
      <trkpt lat="43.26921" lon="6.03948">
        <ele>671.5</ele>
        <time>2015-01-07T10:46:47Z</time>
      </trkpt>
      <trkpt lat="43.26896" lon="6.03979">
        <ele>679.7</ele>
        <time>2015-01-07T10:47:50Z</time>
      </trkpt>
      <trkpt lat="43.26895" lon="6.0398">
        <ele>679.7</ele>
        <time>2015-01-07T10:47:51Z</time>
      </trkpt>
      <trkpt lat="43.26889" lon="6.04027">
        <ele>677.7</ele>
        <time>2015-01-07T10:48:44Z</time>
      </trkpt>
      <trkpt lat="43.26888" lon="6.04051">
        <ele>681.9</ele>
        <time>2015-01-07T10:49:07Z</time>
      </trkpt>
      <trkpt lat="43.26888" lon="6.04052">
        <ele>682</ele>
        <time>2015-01-07T10:49:08Z</time>
      </trkpt>
      <trkpt lat="43.26894" lon="6.04099">
        <ele>682</ele>
        <time>2015-01-07T10:49:53Z</time>
      </trkpt>
      <trkpt lat="43.26889" lon="6.04122">
        <ele>684.2</ele>
        <time>2015-01-07T10:50:21Z</time>
      </trkpt>
      <trkpt lat="43.26889" lon="6.04123">
        <ele>684</ele>
        <time>2015-01-07T10:50:22Z</time>
      </trkpt>
      <trkpt lat="43.26875" lon="6.04166">
        <ele>685.7</ele>
        <time>2015-01-07T10:51:04Z</time>
      </trkpt>
      <trkpt lat="43.26874" lon="6.0419">
        <ele>685.2</ele>
        <time>2015-01-07T10:51:32Z</time>
      </trkpt>
      <trkpt lat="43.26874" lon="6.04191">
        <ele>685.4</ele>
        <time>2015-01-07T10:51:33Z</time>
      </trkpt>
      <trkpt lat="43.26885" lon="6.04211">
        <ele>687.7</ele>
        <time>2015-01-07T10:56:09Z</time>
      </trkpt>
      <trkpt lat="43.26905" lon="6.04245">
        <ele>679.7</ele>
        <time>2015-01-07T10:56:52Z</time>
      </trkpt>
      <trkpt lat="43.2692" lon="6.04256">
        <ele>680.7</ele>
        <time>2015-01-07T10:57:12Z</time>
      </trkpt>
      <trkpt lat="43.26921" lon="6.04256">
        <ele>680.7</ele>
        <time>2015-01-07T10:57:13Z</time>
      </trkpt>
      <trkpt lat="43.26953" lon="6.0427">
        <ele>681</ele>
        <time>2015-01-07T10:57:49Z</time>
      </trkpt>
      <trkpt lat="43.2697" lon="6.04278">
        <ele>678.5</ele>
        <time>2015-01-07T10:58:14Z</time>
      </trkpt>
      <trkpt lat="43.26971" lon="6.04279">
        <ele>678.5</ele>
        <time>2015-01-07T10:58:15Z</time>
      </trkpt>
    </trkseg>
  </trk>
</gpx>